Ali Cat — MZCL8 — position and weather

sailwx.info

Track history (hours):
 
Tides and Currents Weather Stations Pressure Air Temp Water Temp Dewpoint Dewpoint Depression Visibility Wind Speed Wind Dir Waves Ship Positions

Ali Cat

Operator: MRCC Clyde

Last reported at 2019-Dec-14 17:29 UTC. Time now 2019-Dec-15 10:33 UTC.
Position N 55°57' W 004°53'.

Length 19 m.

Type: Passenger vessel. MMSI: 235056506.

Date/timePositionNaut miles runAvg speedWind from/ knotsBaromVisibWave heightAir tempDewpointWater temp
2019-Dec-14 17:29N 55°57' W 004°53'1 0.2
2019-Dec-14 10:24N 55°57' W 004°55'1 1.3
2019-Dec-14 09:30N 55°57' W 004°53'0 0.0
2019-Dec-13 20:30N 55°57' W 004°53'0 0.0
2019-Dec-13 18:30N 55°57' W 004°53'1 0.4
2019-Dec-13 16:35N 55°57' W 004°51'0 0.0
2019-Dec-13 12:33N 55°57' W 004°52'1 0.1
2019-Dec-13 08:30N 55°57' W 004°53'2 0.9
2019-Dec-13 06:50N 55°58' W 004°50'2 0.2
2019-Dec-12 19:59N 55°57' W 004°53'0 0.0
2019-Dec-12 15:00N 55°57' W 004°53'1 0.4
2019-Dec-12 13:05N 55°57' W 004°51'1 0.6
2019-Dec-12 12:08N 55°58' W 004°51'2 1.4
2019-Dec-12 10:59N 55°57' W 004°53'1 1.7
2019-Dec-12 10:07N 55°58' W 004°51'1 1.0
2019-Dec-12 09:00N 55°57' W 004°53'1 0.7
2019-Dec-12 07:05N 55°58' W 004°51'2 0.2
2019-Dec-11 22:17N 55°57' W 004°53'0 0.3
2019-Dec-11 20:59N 55°57' W 004°53'1 0.5
2019-Dec-11 19:05N 55°58' W 004°51'0 0.0
2019-Dec-11 08:58N 55°57' W 004°51'1 0.1
2019-Dec-10 21:46N 55°57' W 004°53'0 0.1
2019-Dec-10 20:28N 55°57' W 004°53'0 0.0
2019-Dec-10 18:28N 55°57' W 004°53'1 0.0
2019-Dec-09 21:51N 55°58' W 004°51'0 0.1
2019-Dec-09 20:33N 55°58' W 004°52'111.2
2019-Dec-09 20:28N 55°57' W 004°53'1 0.4
2019-Dec-09 17:34N 55°58' W 004°51'  
2019-Dec-07 09:21N 55°57' W 004°55'1 0.6
2019-Dec-07 08:28N 55°57' W 004°54'2 1.0
2019-Dec-07 06:57N 55°58' W 004°52'0 0.0
2019-Dec-06 21:21N 55°57' W 004°52'0 0.6
2019-Dec-06 20:32N 55°57' W 004°52'1 2.0
2019-Dec-06 19:58N 55°58' W 004°51'1 2.6
2019-Dec-06 19:28N 55°57' W 004°53'1 0.9
2019-Dec-06 18:00N 55°58' W 004°51'0 0.1
2019-Dec-06 16:59N 55°58' W 004°51'1 1.0
2019-Dec-06 15:55N 55°58' W 004°49'2 0.5
2019-Dec-06 12:31N 55°57' W 004°52'010.4
2019-Dec-06 12:29N 55°57' W 004°53'1 1.9
2019-Dec-06 11:59N 55°58' W 004°51'0 0.1
2019-Dec-06 11:00N 55°58' W 004°52'0 0.0
2019-Dec-05 09:00N 55°58' W 004°52'2 0.1
2019-Dec-04 18:51N 55°58' W 004°49'  
Track history (hours):
 
Tides and Currents Weather Stations Pressure Air Temp Water Temp Dewpoint Dewpoint Depression Visibility Wind Speed Wind Dir Waves Ship Positions

Ali Cat

Operator: MRCC Clyde

Last reported at 2019-Dec-14 17:29 UTC. Time now 2019-Dec-15 10:33 UTC.
Position N 55°57' W 004°53'.

Length 19 m.

Type: Passenger vessel. MMSI: 235056506.

Date/timePositionNaut miles runAvg speedWind from/ knotsBaromVisibWave heightAir tempDewpointWater temp
2019-Dec-14 17:29N 55°57' W 004°53'1 0.2
2019-Dec-14 10:24N 55°57' W 004°55'1 1.3
2019-Dec-14 09:30N 55°57' W 004°53'0 0.0
2019-Dec-13 20:30N 55°57' W 004°53'0 0.0
2019-Dec-13 18:30N 55°57' W 004°53'1 0.4
2019-Dec-13 16:35N 55°57' W 004°51'0 0.0
2019-Dec-13 12:33N 55°57' W 004°52'1 0.1
2019-Dec-13 08:30N 55°57' W 004°53'2 0.9
2019-Dec-13 06:50N 55°58' W 004°50'2 0.2
2019-Dec-12 19:59N 55°57' W 004°53'0 0.0
2019-Dec-12 15:00N 55°57' W 004°53'1 0.4
2019-Dec-12 13:05N 55°57' W 004°51'1 0.6
2019-Dec-12 12:08N 55°58' W 004°51'2 1.4
2019-Dec-12 10:59N 55°57' W 004°53'1 1.7
2019-Dec-12 10:07N 55°58' W 004°51'1 1.0
2019-Dec-12 09:00N 55°57' W 004°53'1 0.7
2019-Dec-12 07:05N 55°58' W 004°51'2 0.2
2019-Dec-11 22:17N 55°57' W 004°53'0 0.3
2019-Dec-11 20:59N 55°57' W 004°53'1 0.5
2019-Dec-11 19:05N 55°58' W 004°51'0 0.0
2019-Dec-11 08:58N 55°57' W 004°51'1 0.1
2019-Dec-10 21:46N 55°57' W 004°53'0 0.1
2019-Dec-10 20:28N 55°57' W 004°53'0 0.0
2019-Dec-10 18:28N 55°57' W 004°53'1 0.0
2019-Dec-09 21:51N 55°58' W 004°51'0 0.1
2019-Dec-09 20:33N 55°58' W 004°52'111.2
2019-Dec-09 20:28N 55°57' W 004°53'1 0.4
2019-Dec-09 17:34N 55°58' W 004°51'  
2019-Dec-07 09:21N 55°57' W 004°55'1 0.6
2019-Dec-07 08:28N 55°57' W 004°54'2 1.0
2019-Dec-07 06:57N 55°58' W 004°52'0 0.0
2019-Dec-06 21:21N 55°57' W 004°52'0 0.6
2019-Dec-06 20:32N 55°57' W 004°52'1 2.0
2019-Dec-06 19:58N 55°58' W 004°51'1 2.6
2019-Dec-06 19:28N 55°57' W 004°53'1 0.9
2019-Dec-06 18:00N 55°58' W 004°51'0 0.1
2019-Dec-06 16:59N 55°58' W 004°51'1 1.0
2019-Dec-06 15:55N 55°58' W 004°49'2 0.5
2019-Dec-06 12:31N 55°57' W 004°52'010.4
2019-Dec-06 12:29N 55°57' W 004°53'1 1.9
2019-Dec-06 11:59N 55°58' W 004°51'0 0.1
2019-Dec-06 11:00N 55°58' W 004°52'0 0.0
2019-Dec-05 09:00N 55°58' W 004°52'2 0.1
2019-Dec-04 18:51N 55°58' W 004°49'  

Dump ship's entire track history